Shadwell, Virginia
Current Conditions -  °F | °C
As of 12:53 AM on Tuesday 21 Oct 2014 (Local Time) from KCHO Reporting Station
Scattered Clouds Scattered Clouds  
Wind Chill: 53°   Ceiling: Unl
Heat Index: 53°   Visibility: 10mi
Dew Point: 48°   Wind: 6mph
Humidity: 83%   Direction: 200°SSW
Pressure: 29.92"   Gusts: NA
Location:  38.0053°N, 78.3345°W
Report Text: KCHO 210453Z AUTO 20005KT 10SM SCT120 12/09 A2992 RMK AO2 SLP129 T01170089 402000022
Loading
Personal Weather Stations






























Interactive Weather Map
Tropical Storm Tracking
New forecast layout! Learn more

10-Day Weather Forecast

Advertisements
Track Severe Weather on mobile